Terminal Aerodrome Forecast
Issued by NWS

Home | Current Version | Previous Version | Text Only | Print | Product List | Glossary On
Versions: 1 2 3 4 5 6 7 8 9 10 11 12 13
579
FTUS43 KILX 251120
TAFDEC
TAF
KDEC 251120Z 2512/2612 VRB04KT P6SM FEW090
     FM251500 18006KT P6SM SCT060
     FM260000 18003KT P6SM FEW080 SCT250=

USA.gov is the U.S. government's official web portal to all federal, state and local government web resources and services.